Ottumwa, IA (52501)

2:53 PM CST on February 12, 2016 (GMT -0600)
East | | Change Station
CLOSE
Current Station
Personal Weather Station
Location: Ottumwa, IA
Elevation: 833 ft
Nearby Weather Stations

Elev 833 ft 41.03 °N, 92.40 °W | Updated 26 seconds ago

Clear
Clear
20.3 °F
Feels Like 9 °F
N
10.0
Wind Variable Wind from NNW
Gusts 17.0 mph

Today
High -- | Low -- °F
--% Chance of Precip.
Yesterday
High -- | Low -- °F
Precip. -- in
Pressure 30.45 in
Visibility 10.0 miles
Clouds Clear
Windchill 9 °F
Dew Point 5 °F
Humidity 51%
Rainfall 0.00 in
Snow Depth Not available.
7:08 AM 5:39 PM
Waxing Crescent, 23% visible
METAR KOTM 121953Z AUTO 32024KT 10SM CLR M07/M13 A3040 RMK AO2 PK WND 32028/1928 SLP309 T10671133
Pressure 30.45 in
Visibility 10.0 miles
Clouds Clear
Windchill 9 °F
Dew Point 5 °F
Humidity 51%
Rainfall 0.00 in
Snow Depth Not available.
7:08 AM 5:39 PM
Waxing Crescent, 23% visible
METAR KOTM 121953Z AUTO 32024KT 10SM CLR M07/M13 A3040 RMK AO2 PK WND 32028/1928 SLP309 T10671133

10-Day Weather Forecast

Almanac

Astronomy

Feb. 12, 2016 Rise Set
Actual Time
Civil Twilight
Nautical Twilight
Astronomical Twilight
Moon
Length of Visible Light
Length of Day
Tomorrow will be .
, % of the Moon is Illuminated

Today's Extremes

State Highs State Lows

Community

WunderPhotos

Upload Photos

1,892,389 photos uploaded!

WunderBlog® & News

Nearby

Air Quality

  Air Quality AQ Index Pollutant
Not available.

Snow Depth

Station Depth Elevation

Earthquake Activity

City Distance Mag. Time & Date
Minimum magnitude displayed is 2.5.

Coastal Water Temperatures

Place Temperature

Stations

Nearby Weather Stations

Station Location Temp. Windchill Dew Point Humidity Wind Precip. Elev Updated Type
                   

Watches & Warnings

There are currently no watches in effect.